sensor_id;sensor_type;location;lat;lon;timestamp;pressure;altitude;pressure_sealevel;temperature;humidity
59110;BME280;44895;47.438;18.978;2024-02-23T00:01:26;98704.81;;;10.33;95.71
59110;BME280;44895;47.438;18.978;2024-02-23T00:04:30;98711.22;;;10.37;95.61
59110;BME280;44895;47.438;18.978;2024-02-23T00:07:34;98691.44;;;10.28;96.56
59110;BME280;44895;47.438;18.978;2024-02-23T00:10:38;98704.03;;;10.41;96.51
59110;BME280;44895;47.438;18.978;2024-02-23T00:13:42;98699.25;;;10.38;95.95
59110;BME280;44895;47.438;18.978;2024-02-23T00:16:46;98702.91;;;10.42;96.23
59110;BME280;44895;47.438;18.978;2024-02-23T00:19:50;98707.69;;;10.46;96.50
59110;BME280;44895;47.438;18.978;2024-02-23T00:22:56;98706.88;;;10.45;96.69
59110;BME280;44895;47.438;18.978;2024-02-23T00:25:59;98693.16;;;10.41;97.02
59110;BME280;44895;47.438;18.978;2024-02-23T00:29:03;98700.00;;;10.48;95.56
59110;BME280;44895;47.438;18.978;2024-02-23T00:32:07;98712.59;;;10.52;96.46
59110;BME280;44895;47.438;18.978;2024-02-23T00:35:10;98711.81;;;10.52;95.49
59110;BME280;44895;47.438;18.978;2024-02-23T00:38:14;98709.69;;;10.57;95.56
59110;BME280;44895;47.438;18.978;2024-02-23T00:41:18;98706.19;;;10.57;95.27
59110;BME280;44895;47.438;18.978;2024-02-23T00:44:22;98710.50;;;10.58;95.91
59110;BME280;44895;47.438;18.978;2024-02-23T00:47:26;98705.72;;;10.55;97.18
59110;BME280;44895;47.438;18.978;2024-02-23T00:50:30;98706.78;;;10.63;97.88
59110;BME280;44895;47.438;18.978;2024-02-23T00:53:34;98711.13;;;10.55;100.00
59110;BME280;44895;47.438;18.978;2024-02-23T00:56:37;98712.75;;;10.56;100.00
59110;BME280;44895;47.438;18.978;2024-02-23T00:59:42;98714.47;;;10.60;100.00
59110;BME280;44895;47.438;18.978;2024-02-23T01:02:45;98698.81;;;10.57;100.00
59110;BME280;44895;47.438;18.978;2024-02-23T01:05:49;98709.59;;;10.45;100.00
59110;BME280;44895;47.438;18.978;2024-02-23T01:08:53;98711.34;;;10.41;100.00
59110;BME280;44895;47.438;18.978;2024-02-23T01:11:57;98702.75;;;10.30;100.00
59110;BME280;44895;47.438;18.978;2024-02-23T01:15:00;98702.59;;;10.35;100.00
59110;BME280;44895;47.438;18.978;2024-02-23T01:18:04;98703.72;;;10.25;100.00
59110;BME280;44895;47.438;18.978;2024-02-23T01:21:10;98698.16;;;10.22;100.00
59110;BME280;44895;47.438;18.978;2024-02-23T01:24:14;98694.53;;;10.09;100.00
59110;BME280;44895;47.438;18.978;2024-02-23T01:27:18;98688.31;;;10.08;100.00
59110;BME280;44895;47.438;18.978;2024-02-23T01:30:21;98692.78;;;10.04;100.00
59110;BME280;44895;47.438;18.978;2024-02-23T01:33:25;98691.06;;;10.00;100.00
59110;BME280;44895;47.438;18.978;2024-02-23T01:36:29;98688.06;;;9.84;100.00
59110;BME280;44895;47.438;18.978;2024-02-23T01:39:33;98682.59;;;9.92;100.00
59110;BME280;44895;47.438;18.978;2024-02-23T01:42:37;98685.19;;;9.80;100.00
59110;BME280;44895;47.438;18.978;2024-02-23T01:45:40;98681.03;;;9.83;100.00
59110;BME280;44895;47.438;18.978;2024-02-23T01:48:45;98669.56;;;9.86;100.00
59110;BME280;44895;47.438;18.978;2024-02-23T01:51:50;98672.75;;;9.79;100.00
59110;BME280;44895;47.438;18.978;2024-02-23T01:54:55;98673.72;;;9.74;100.00
59110;BME280;44895;47.438;18.978;2024-02-23T01:58:00;98670.34;;;9.77;100.00
59110;BME280;44895;47.438;18.978;2024-02-23T02:01:04;98675.59;;;9.83;100.00
59110;BME280;44895;47.438;18.978;2024-02-23T02:04:07;98671.94;;;9.78;100.00
59110;BME280;44895;47.438;18.978;2024-02-23T02:07:12;98664.47;;;9.75;100.00
59110;BME280;44895;47.438;18.978;2024-02-23T02:10:16;98673.56;;;9.79;100.00
59110;BME280;44895;47.438;18.978;2024-02-23T02:13:21;98669.09;;;9.75;100.00
59110;BME280;44895;47.438;18.978;2024-02-23T02:16:25;98672.13;;;9.82;100.00
59110;BME280;44895;47.438;18.978;2024-02-23T02:19:28;98643.41;;;9.72;100.00
59110;BME280;44895;47.438;18.978;2024-02-23T02:22:33;98663.47;;;9.89;100.00
59110;BME280;44895;47.438;18.978;2024-02-23T02:25:37;98662.34;;;9.90;100.00
59110;BME280;44895;47.438;18.978;2024-02-23T02:28:40;98664.13;;;9.86;100.00
59110;BME280;44895;47.438;18.978;2024-02-23T02:31:44;98664.44;;;9.84;100.00
59110;BME280;44895;47.438;18.978;2024-02-23T02:34:48;98663.13;;;9.90;100.00
59110;BME280;44895;47.438;18.978;2024-02-23T02:37:52;98660.91;;;9.92;100.00
59110;BME280;44895;47.438;18.978;2024-02-23T02:40:56;98662.22;;;9.86;100.00
59110;BME280;44895;47.438;18.978;2024-02-23T02:44:00;98662.34;;;9.90;100.00
59110;BME280;44895;47.438;18.978;2024-02-23T02:47:04;98663.16;;;9.82;100.00
59110;BME280;44895;47.438;18.978;2024-02-23T02:50:08;98669.25;;;9.78;100.00
59110;BME280;44895;47.438;18.978;2024-02-23T02:53:12;98664.13;;;9.86;100.00
59110;BME280;44895;47.438;18.978;2024-02-23T02:56:17;98667.97;;;9.76;100.00
59110;BME280;44895;47.438;18.978;2024-02-23T02:59:21;98671.94;;;9.78;100.00
59110;BME280;44895;47.438;18.978;2024-02-23T03:02:24;98663.34;;;9.68;100.00
59110;BME280;44895;47.438;18.978;2024-02-23T03:05:28;98659.53;;;9.69;100.00
59110;BME280;44895;47.438;18.978;2024-02-23T03:08:31;98663.41;;;9.59;100.00
59110;BME280;44895;47.438;18.978;2024-02-23T03:11:35;98660.53;;;9.55;100.00
59110;BME280;44895;47.438;18.978;2024-02-23T03:14:39;98660.81;;;9.54;100.00
59110;BME280;44895;47.438;18.978;2024-02-23T03:17:43;98653.03;;;9.43;100.00
59110;BME280;44895;47.438;18.978;2024-02-23T03:20:47;98671.38;;;9.55;100.00
59110;BME280;44895;47.438;18.978;2024-02-23T03:23:51;98664.97;;;9.51;100.00
59110;BME280;44895;47.438;18.978;2024-02-23T03:26:54;98673.91;;;9.52;100.00
59110;BME280;44895;47.438;18.978;2024-02-23T03:29:59;98672.50;;;9.45;100.00
59110;BME280;44895;47.438;18.978;2024-02-23T03:33:03;98667.56;;;9.48;100.00
59110;BME280;44895;47.438;18.978;2024-02-23T03:36:06;98666.56;;;9.43;100.00
59110;BME280;44895;47.438;18.978;2024-02-23T03:39:10;98676.81;;;9.29;100.00
59110;BME280;44895;47.438;18.978;2024-02-23T03:42:14;98667.72;;;9.34;100.00
59110;BME280;44895;47.438;18.978;2024-02-23T03:45:18;98677.28;;;9.31;100.00
59110;BME280;44895;47.438;18.978;2024-02-23T03:48:21;98674.25;;;9.41;100.00
59110;BME280;44895;47.438;18.978;2024-02-23T03:51:25;98670.88;;;9.44;100.00
59110;BME280;44895;47.438;18.978;2024-02-23T03:54:29;98673.13;;;9.42;100.00
59110;BME280;44895;47.438;18.978;2024-02-23T03:57:35;98671.53;;;9.50;100.00
59110;BME280;44895;47.438;18.978;2024-02-23T04:00:38;98682.38;;;9.41;100.00
59110;BME280;44895;47.438;18.978;2024-02-23T04:03:42;98672.81;;;9.53;100.00
59110;BME280;44895;47.438;18.978;2024-02-23T04:06:46;98681.09;;;9.48;100.00
59110;BME280;44895;47.438;18.978;2024-02-23T04:09:50;98674.06;;;9.55;100.00
59110;BME280;44895;47.438;18.978;2024-02-23T04:12:57;98689.53;;;9.55;100.00
59110;BME280;44895;47.438;18.978;2024-02-23T04:16:01;98684.94;;;9.46;100.00
59110;BME280;44895;47.438;18.978;2024-02-23T04:19:06;98682.53;;;9.45;100.00
59110;BME280;44895;47.438;18.978;2024-02-23T04:22:09;98681.56;;;9.50;100.00
59110;BME280;44895;47.438;18.978;2024-02-23T04:25:13;98677.75;;;9.42;100.00
59110;BME280;44895;47.438;18.978;2024-02-23T04:28:17;98674.88;;;9.47;100.00
59110;BME280;44895;47.438;18.978;2024-02-23T04:31:21;98679.19;;;9.48;100.00
59110;BME280;44895;47.438;18.978;2024-02-23T04:34:24;98680.13;;;9.43;100.00
59110;BME280;44895;47.438;18.978;2024-02-23T04:37:28;98678.22;;;9.44;100.00
59110;BME280;44895;47.438;18.978;2024-02-23T04:40:32;98679.84;;;9.36;100.00
59110;BME280;44895;47.438;18.978;2024-02-23T04:43:35;98684.28;;;9.50;100.00
59110;BME280;44895;47.438;18.978;2024-02-23T04:46:39;98686.03;;;9.45;100.00
59110;BME280;44895;47.438;18.978;2024-02-23T04:49:43;98684.75;;;9.52;100.00
59110;BME280;44895;47.438;18.978;2024-02-23T04:52:47;98684.75;;;9.52;100.00
59110;BME280;44895;47.438;18.978;2024-02-23T04:55:50;98674.41;;;9.45;100.00
59110;BME280;44895;47.438;18.978;2024-02-23T04:58:54;98683.94;;;9.51;100.00
59110;BME280;44895;47.438;18.978;2024-02-23T05:01:57;98678.56;;;9.42;100.00
59110;BME280;44895;47.438;18.978;2024-02-23T05:05:03;98691.63;;;9.49;100.00
59110;BME280;44895;47.438;18.978;2024-02-23T05:08:08;98690.97;;;9.43;100.00
59110;BME280;44895;47.438;18.978;2024-02-23T05:11:14;98705.63;;;9.51;100.00
59110;BME280;44895;47.438;18.978;2024-02-23T05:14:19;98704.69;;;9.47;100.00
59110;BME280;44895;47.438;18.978;2024-02-23T05:17:22;98715.84;;;9.54;100.00
59110;BME280;44895;47.438;18.978;2024-02-23T05:20:26;98706.94;;;9.45;100.00
59110;BME280;44895;47.438;18.978;2024-02-23T05:23:30;98721.25;;;9.45;100.00
59110;BME280;44895;47.438;18.978;2024-02-23T05:26:34;98725.72;;;9.41;100.00
59110;BME280;44895;47.438;18.978;2024-02-23T05:29:38;98722.22;;;9.50;100.00
59110;BME280;44895;47.438;18.978;2024-02-23T05:32:41;98733.22;;;9.44;100.00
59110;BME280;44895;47.438;18.978;2024-02-23T05:35:45;98731.78;;;9.38;100.00
59110;BME280;44895;47.438;18.978;2024-02-23T05:38:49;98749.97;;;9.38;100.00
59110;BME280;44895;47.438;18.978;2024-02-23T05:41:53;98753.00;;;9.36;100.00
59110;BME280;44895;47.438;18.978;2024-02-23T05:44:56;98761.56;;;9.29;100.00
59110;BME280;44895;47.438;18.978;2024-02-23T05:48:00;98767.50;;;9.40;100.00
59110;BME280;44895;47.438;18.978;2024-02-23T05:51:04;98769.41;;;9.31;100.00
59110;BME280;44895;47.438;18.978;2024-02-23T05:54:08;98787.09;;;9.28;100.00
59110;BME280;44895;47.438;18.978;2024-02-23T05:57:11;98792.16;;;9.21;100.00
59110;BME280;44895;47.438;18.978;2024-02-23T06:00:16;98794.41;;;9.37;100.00
59110;BME280;44895;47.438;18.978;2024-02-23T06:03:22;98800.13;;;9.18;100.00
59110;BME280;44895;47.438;18.978;2024-02-23T06:06:26;98798.06;;;9.32;100.00
59110;BME280;44895;47.438;18.978;2024-02-23T06:09:30;98811.47;;;9.20;100.00
59110;BME280;44895;47.438;18.978;2024-02-23T06:12:33;98803.78;;;9.22;100.00
59110;BME280;44895;47.438;18.978;2024-02-23T06:15:37;98807.00;;;9.24;100.00
59110;BME280;44895;47.438;18.978;2024-02-23T06:18:42;98816.56;;;9.21;100.00
59110;BME280;44895;47.438;18.978;2024-02-23T06:21:49;98820.88;;;9.22;100.00
59110;BME280;44895;47.438;18.978;2024-02-23T06:24:53;98817.81;;;9.15;100.00
59110;BME280;44895;47.438;18.978;2024-02-23T06:27:57;98818.75;;;9.10;100.00
59110;BME280;44895;47.438;18.978;2024-02-23T06:31:00;98822.44;;;9.23;100.00
59110;BME280;44895;47.438;18.978;2024-02-23T06:34:05;98829.13;;;9.26;100.00
59110;BME280;44895;47.438;18.978;2024-02-23T06:37:08;98831.25;;;9.38;100.00
59110;BME280;44895;47.438;18.978;2024-02-23T06:40:12;98834.25;;;9.27;100.00
59110;BME280;44895;47.438;18.978;2024-02-23T06:43:16;98831.69;;;9.22;100.00
59110;BME280;44895;47.438;18.978;2024-02-23T06:46:20;98832.63;;;9.18;100.00
59110;BME280;44895;47.438;18.978;2024-02-23T06:49:24;98838.41;;;9.25;100.00
59110;BME280;44895;47.438;18.978;2024-02-23T06:52:28;98838.25;;;9.30;100.00
59110;BME280;44895;47.438;18.978;2024-02-23T06:55:34;98843.81;;;9.25;100.00
59110;BME280;44895;47.438;18.978;2024-02-23T06:58:37;98840.94;;;9.21;100.00
59110;BME280;44895;47.438;18.978;2024-02-23T07:01:51;98843.31;;;9.23;100.00
59110;BME280;44895;47.438;18.978;2024-02-23T07:04:55;98852.38;;;9.18;100.00
59110;BME280;44895;47.438;18.978;2024-02-23T07:08:00;98849.69;;;9.27;100.00
59110;BME280;44895;47.438;18.978;2024-02-23T07:11:03;98844.13;;;9.32;100.00
59110;BME280;44895;47.438;18.978;2024-02-23T07:14:07;98849.69;;;9.27;100.00
59110;BME280;44895;47.438;18.978;2024-02-23T07:17:12;98849.41;;;9.37;100.00
59110;BME280;44895;47.438;18.978;2024-02-23T07:20:20;98852.59;;;9.39;100.00
59110;BME280;44895;47.438;18.978;2024-02-23T07:23:24;98860.75;;;9.48;100.00
59110;BME280;44895;47.438;18.978;2024-02-23T07:26:27;98859.47;;;9.37;100.00
59110;BME280;44895;47.438;18.978;2024-02-23T07:29:34;98855.78;;;9.33;100.00
59110;BME280;44895;47.438;18.978;2024-02-23T07:32:37;98874.91;;;9.27;100.00
59110;BME280;44895;47.438;18.978;2024-02-23T07:35:41;98871.09;;;9.37;100.00
59110;BME280;44895;47.438;18.978;2024-02-23T07:38:46;98869.97;;;9.38;100.00
59110;BME280;44895;47.438;18.978;2024-02-23T07:41:49;98874.59;;;9.38;100.00
59110;BME280;44895;47.438;18.978;2024-02-23T07:44:53;98865.66;;;9.37;100.00
59110;BME280;44895;47.438;18.978;2024-02-23T07:47:57;98872.06;;;9.41;100.00
59110;BME280;44895;47.438;18.978;2024-02-23T07:51:02;98874.81;;;9.50;100.00
59110;BME280;44895;47.438;18.978;2024-02-23T07:54:06;98884.97;;;9.44;100.00
59110;BME280;44895;47.438;18.978;2024-02-23T07:57:10;98884.00;;;9.40;100.00
59110;BME280;44895;47.438;18.978;2024-02-23T08:00:14;98877.19;;;9.52;100.00
59110;BME280;44895;47.438;18.978;2024-02-23T08:03:17;98877.03;;;9.57;100.00
59110;BME280;44895;47.438;18.978;2024-02-23T08:06:21;98876.38;;;9.51;100.00
59110;BME280;44895;47.438;18.978;2024-02-23T08:09:25;98884.34;;;9.56;100.00
59110;BME280;44895;47.438;18.978;2024-02-23T08:12:29;98893.44;;;9.52;100.00
59110;BME280;44895;47.438;18.978;2024-02-23T08:15:32;98878.78;;;9.44;100.00
59110;BME280;44895;47.438;18.978;2024-02-23T08:18:36;98886.59;;;9.45;100.00
59110;BME280;44895;47.438;18.978;2024-02-23T08:21:40;98898.59;;;9.71;100.00
59110;BME280;44895;47.438;18.978;2024-02-23T08:24:45;98892.50;;;9.65;100.00
59110;BME280;44895;47.438;18.978;2024-02-23T08:27:48;98885.66;;;9.59;100.00
59110;BME280;44895;47.438;18.978;2024-02-23T08:30:52;98897.78;;;9.70;100.00
59110;BME280;44895;47.438;18.978;2024-02-23T08:33:56;98908.63;;;9.79;100.00
59110;BME280;44895;47.438;18.978;2024-02-23T08:37:01;98907.84;;;9.78;100.00
59110;BME280;44895;47.438;18.978;2024-02-23T08:40:06;98912.97;;;9.89;100.00
59110;BME280;44895;47.438;18.978;2024-02-23T08:43:10;98916.34;;;9.94;100.00
59110;BME280;44895;47.438;18.978;2024-02-23T08:46:13;98915.84;;;9.92;100.00
59110;BME280;44895;47.438;18.978;2024-02-23T08:49:17;98901.50;;;9.92;100.00
59110;BME280;44895;47.438;18.978;2024-02-23T08:52:21;98922.56;;;9.95;100.00
59110;BME280;44895;47.438;18.978;2024-02-23T08:55:24;98919.50;;;9.96;100.00
59110;BME280;44895;47.438;18.978;2024-02-23T08:58:28;98926.38;;;9.94;100.00
59110;BME280;44895;47.438;18.978;2024-02-23T09:01:32;98923.97;;;9.84;100.00
59110;BME280;44895;47.438;18.978;2024-02-23T09:04:36;98931.00;;;9.85;100.00
59110;BME280;44895;47.438;18.978;2024-02-23T09:07:39;98923.19;;;9.83;100.00
59110;BME280;44895;47.438;18.978;2024-02-23T09:10:43;98927.81;;;9.91;100.00
59110;BME280;44895;47.438;18.978;2024-02-23T09:13:47;98936.75;;;9.92;100.00
59110;BME280;44895;47.438;18.978;2024-02-23T09:16:51;98934.84;;;9.92;100.00
59110;BME280;44895;47.438;18.978;2024-02-23T09:19:55;98938.81;;;9.95;100.00
59110;BME280;44895;47.438;18.978;2024-02-23T09:22:58;98935.31;;;9.86;100.00
59110;BME280;44895;47.438;18.978;2024-02-23T09:26:08;98934.50;;;9.94;100.00
59110;BME280;44895;47.438;18.978;2024-02-23T09:29:12;98925.09;;;10.00;100.00
59110;BME280;44895;47.438;18.978;2024-02-23T09:32:16;98940.88;;;9.98;100.00
59110;BME280;44895;47.438;18.978;2024-02-23T09:35:20;98935.00;;;9.96;100.00
59110;BME280;44895;47.438;18.978;2024-02-23T09:38:25;98943.16;;;10.05;100.00
59110;BME280;44895;47.438;18.978;2024-02-23T09:41:28;98935.47;;;9.98;100.00
59110;BME280;44895;47.438;18.978;2024-02-23T09:44:32;98941.06;;;10.02;100.00
59110;BME280;44895;47.438;18.978;2024-02-23T09:47:40;98946.81;;;10.00;100.00
59110;BME280;44895;47.438;18.978;2024-02-23T09:50:44;98948.25;;;10.15;100.00
59110;BME280;44895;47.438;18.978;2024-02-23T09:53:49;98946.03;;;10.08;100.00
59110;BME280;44895;47.438;18.978;2024-02-23T09:56:55;98952.25;;;10.18;100.00
59110;BME280;44895;47.438;18.978;2024-02-23T09:59:58;98958.63;;;10.31;100.00
59110;BME280;44895;47.438;18.978;2024-02-23T10:03:02;98951.16;;;10.27;100.00
59110;BME280;44895;47.438;18.978;2024-02-23T10:06:07;98943.00;;;10.54;100.00
59110;BME280;44895;47.438;18.978;2024-02-23T10:09:12;98949.91;;;10.42;100.00
59110;BME280;44895;47.438;18.978;2024-02-23T10:12:16;98948.44;;;10.54;100.00
59110;BME280;44895;47.438;18.978;2024-02-23T10:15:20;98940.78;;;10.56;100.00
59110;BME280;44895;47.438;18.978;2024-02-23T10:18:23;98953.56;;;10.55;100.00
59110;BME280;44895;47.438;18.978;2024-02-23T10:21:27;98958.50;;;10.62;100.00
59110;BME280;44895;47.438;18.978;2024-02-23T10:24:31;98956.28;;;10.47;100.00
59110;BME280;44895;47.438;18.978;2024-02-23T10:27:34;98951.16;;;10.54;100.00
59110;BME280;44895;47.438;18.978;2024-02-23T10:30:38;98954.69;;;10.46;100.00
59110;BME280;44895;47.438;18.978;2024-02-23T10:33:46;98954.19;;;10.70;100.00
59110;BME280;44895;47.438;18.978;2024-02-23T10:36:52;98953.56;;;10.64;100.00
59110;BME280;44895;47.438;18.978;2024-02-23T10:39:58;98957.06;;;10.56;100.00
59110;BME280;44895;47.438;18.978;2024-02-23T10:43:04;98960.28;;;10.58;100.00
59110;BME280;44895;47.438;18.978;2024-02-23T10:46:11;98951.47;;;10.61;100.00
59110;BME280;44895;47.438;18.978;2024-02-23T10:49:17;98951.63;;;10.65;100.00
59110;BME280;44895;47.438;18.978;2024-02-23T10:52:23;98952.72;;;10.72;100.00
59110;BME280;44895;47.438;18.978;2024-02-23T10:55:29;98954.97;;;10.70;100.00
59110;BME280;44895;47.438;18.978;2024-02-23T10:58:34;98955.94;;;10.66;100.00
59110;BME280;44895;47.438;18.978;2024-02-23T11:01:38;98949.53;;;10.70;100.00
59110;BME280;44895;47.438;18.978;2024-02-23T11:04:44;98951.09;;;10.89;100.00
59110;BME280;44895;47.438;18.978;2024-02-23T11:07:49;98952.88;;;10.85;100.00
59110;BME280;44895;47.438;18.978;2024-02-23T11:10:54;98949.22;;;10.81;100.00
59110;BME280;44895;47.438;18.978;2024-02-23T11:13:57;98943.28;;;10.96;100.00
59110;BME280;44895;47.438;18.978;2024-02-23T11:17:02;98945.03;;;11.01;100.00
59110;BME280;44895;47.438;18.978;2024-02-23T11:20:06;98951.69;;;11.12;100.00
59110;BME280;44895;47.438;18.978;2024-02-23T11:23:14;98950.88;;;11.12;100.00
59110;BME280;44895;47.438;18.978;2024-02-23T11:26:19;98952.97;;;11.15;100.00
59110;BME280;44895;47.438;18.978;2024-02-23T11:29:26;98947.59;;;10.97;100.00
59110;BME280;44895;47.438;18.978;2024-02-23T11:32:42;98950.31;;;10.97;100.00
59110;BME280;44895;47.438;18.978;2024-02-23T11:35:46;98950.31;;;10.97;100.00
59110;BME280;44895;47.438;18.978;2024-02-23T11:38:53;98945.31;;;11.08;100.00
59110;BME280;44895;47.438;18.978;2024-02-23T11:41:58;98944.00;;;11.14;100.00
59110;BME280;44895;47.438;18.978;2024-02-23T11:45:02;98942.13;;;11.06;100.00
59110;BME280;44895;47.438;18.978;2024-02-23T11:48:07;98931.31;;;11.27;100.00
59110;BME280;44895;47.438;18.978;2024-02-23T11:51:11;98939.38;;;11.15;100.00
59110;BME280;44895;47.438;18.978;2024-02-23T11:54:14;98937.63;;;11.10;100.00
59110;BME280;44895;47.438;18.978;2024-02-23T11:57:18;98916.22;;;11.08;100.00
59110;BME280;44895;47.438;18.978;2024-02-23T12:00:23;98924.81;;;11.19;100.00
59110;BME280;44895;47.438;18.978;2024-02-23T12:03:27;98928.97;;;11.17;100.00
59110;BME280;44895;47.438;18.978;2024-02-23T12:06:33;98924.56;;;11.42;100.00
59110;BME280;44895;47.438;18.978;2024-02-23T12:09:37;98924.88;;;11.40;100.00
59110;BME280;44895;47.438;18.978;2024-02-23T12:12:44;98917.75;;;11.57;100.00
59110;BME280;44895;47.438;18.978;2024-02-23T12:15:48;98908.38;;;11.75;100.00
59110;BME280;44895;47.438;18.978;2024-02-23T12:18:55;98925.06;;;11.65;100.00
59110;BME280;44895;47.438;18.978;2024-02-23T12:22:00;98916.66;;;11.58;100.00
59110;BME280;44895;47.438;18.978;2024-02-23T12:25:05;98917.47;;;11.50;100.00
59110;BME280;44895;47.438;18.978;2024-02-23T12:28:10;98906.69;;;11.32;100.00
59110;BME280;44895;47.438;18.978;2024-02-23T12:31:14;98913.13;;;11.28;100.00
59110;BME280;44895;47.438;18.978;2024-02-23T12:34:18;98915.97;;;11.31;100.00
59110;BME280;44895;47.438;18.978;2024-02-23T12:37:24;98918.84;;;11.26;100.00
59110;BME280;44895;47.438;18.978;2024-02-23T12:40:28;98921.56;;;11.26;100.00
59110;BME280;44895;47.438;18.978;2024-02-23T12:43:32;98918.44;;;11.15;100.00
59110;BME280;44895;47.438;18.978;2024-02-23T12:46:36;98924.03;;;11.19;100.00
59110;BME280;44895;47.438;18.978;2024-02-23T12:49:39;98920.16;;;11.29;100.00
59110;BME280;44895;47.438;18.978;2024-02-23T12:52:43;98923.13;;;11.06;100.00
59110;BME280;44895;47.438;18.978;2024-02-23T12:55:47;98930.41;;;11.14;100.00
59110;BME280;44895;47.438;18.978;2024-02-23T12:58:51;98941.44;;;11.18;100.00
59110;BME280;44895;47.438;18.978;2024-02-23T13:01:56;98918.28;;;11.12;100.00
59110;BME280;44895;47.438;18.978;2024-02-23T13:05:00;98915.03;;;11.27;100.00
59110;BME280;44895;47.438;18.978;2024-02-23T13:08:05;98917.50;;;11.11;100.00
59110;BME280;44895;47.438;18.978;2024-02-23T13:11:09;98927.06;;;11.17;100.00
59110;BME280;44895;47.438;18.978;2024-02-23T13:14:13;98923.53;;;11.17;100.00
59110;BME280;44895;47.438;18.978;2024-02-23T13:17:16;98932.44;;;11.26;100.00
59110;BME280;44895;47.438;18.978;2024-02-23T13:20:21;98931.72;;;11.08;100.00
59110;BME280;44895;47.438;18.978;2024-02-23T13:23:25;98931.38;;;11.09;100.00
59110;BME280;44895;47.438;18.978;2024-02-23T13:26:29;98938.41;;;11.10;100.00
59110;BME280;44895;47.438;18.978;2024-02-23T13:29:32;98915.28;;;10.96;100.00
59110;BME280;44895;47.438;18.978;2024-02-23T13:32:36;98927.69;;;11.14;100.00
59110;BME280;44895;47.438;18.978;2024-02-23T13:35:40;98926.75;;;11.19;100.00
59110;BME280;44895;47.438;18.978;2024-02-23T13:38:44;98918.28;;;11.12;100.00
59110;BME280;44895;47.438;18.978;2024-02-23T13:41:48;98917.94;;;11.13;100.00
59110;BME280;44895;47.438;18.978;2024-02-23T13:44:51;98913.34;;;11.14;100.00
59110;BME280;44895;47.438;18.978;2024-02-23T13:48:01;98912.63;;;11.25;100.00
59110;BME280;44895;47.438;18.978;2024-02-23T13:51:05;98907.41;;;11.12;100.00
59110;BME280;44895;47.438;18.978;2024-02-23T13:54:11;98894.78;;;11.07;100.00
59110;BME280;44895;47.438;18.978;2024-02-23T13:57:14;98886.00;;;11.10;100.00
59110;BME280;44895;47.438;18.978;2024-02-23T14:00:20;98892.63;;;10.91;100.00
59110;BME280;44895;47.438;18.978;2024-02-23T14:03:23;98889.72;;;10.97;100.00
59110;BME280;44895;47.438;18.978;2024-02-23T14:06:27;98885.53;;;11.08;100.00
59110;BME280;44895;47.438;18.978;2024-02-23T14:09:31;98879.69;;;10.88;100.00
59110;BME280;44895;47.438;18.978;2024-02-23T14:12:34;98892.91;;;10.99;100.00
59110;BME280;44895;47.438;18.978;2024-02-23T14:15:38;98889.13;;;10.91;100.00
59110;BME280;44895;47.438;18.978;2024-02-23T14:18:42;98890.59;;;11.18;100.00
59110;BME280;44895;47.438;18.978;2024-02-23T14:21:47;98889.84;;;11.09;100.00
59110;BME280;44895;47.438;18.978;2024-02-23T14:24:52;98889.53;;;11.02;100.00
59110;BME280;44895;47.438;18.978;2024-02-23T14:27:56;98889.19;;;11.12;100.00
59110;BME280;44895;47.438;18.978;2024-02-23T14:30:59;98889.19;;;11.12;100.00
59110;BME280;44895;47.438;18.978;2024-02-23T14:34:03;98894.09;;;10.80;100.00
59110;BME280;44895;47.438;18.978;2024-02-23T14:37:07;98891.50;;;10.92;100.00
59110;BME280;44895;47.438;18.978;2024-02-23T14:40:11;98894.28;;;10.66;100.00
59110;BME280;44895;47.438;18.978;2024-02-23T14:43:15;98890.38;;;10.93;100.00
59110;BME280;44895;47.438;18.978;2024-02-23T14:46:19;98892.47;;;10.88;100.00
59110;BME280;44895;47.438;18.978;2024-02-23T14:49:23;98891.56;;;10.66;100.00
59110;BME280;44895;47.438;18.978;2024-02-23T14:52:27;98886.44;;;10.82;100.00
59110;BME280;44895;47.438;18.978;2024-02-23T14:55:31;98877.03;;;10.71;100.00
59110;BME280;44895;47.438;18.978;2024-02-23T14:58:34;98884.66;;;10.77;100.00
59110;BME280;44895;47.438;18.978;2024-02-23T15:01:39;98886.72;;;10.89;100.00
59110;BME280;44895;47.438;18.978;2024-02-23T15:04:45;98884.81;;;10.81;100.00
59110;BME280;44895;47.438;18.978;2024-02-23T15:07:48;98880.06;;;10.69;100.00
59110;BME280;44895;47.438;18.978;2024-02-23T15:10:52;98876.69;;;10.72;100.00
59110;BME280;44895;47.438;18.978;2024-02-23T15:13:56;98873.03;;;10.77;100.00
59110;BME280;44895;47.438;18.978;2024-02-23T15:17:00;98872.34;;;10.80;100.00
59110;BME280;44895;47.438;18.978;2024-02-23T15:20:05;98868.31;;;10.95;100.00
59110;BME280;44895;47.438;18.978;2024-02-23T15:23:08;98875.72;;;10.86;100.00
59110;BME280;44895;47.438;18.978;2024-02-23T15:26:12;98877.31;;;10.87;100.00
59110;BME280;44895;47.438;18.978;2024-02-23T15:29:16;98878.91;;;10.79;100.00
59110;BME280;44895;47.438;18.978;2024-02-23T15:32:20;98872.97;;;10.95;100.00
59110;BME280;44895;47.438;18.978;2024-02-23T15:35:23;98878.09;;;10.87;100.00
59110;BME280;44895;47.438;18.978;2024-02-23T15:38:29;98877.47;;;10.82;100.00
59110;BME280;44895;47.438;18.978;2024-02-23T15:41:33;98880.34;;;10.76;100.00
59110;BME280;44895;47.438;18.978;2024-02-23T15:44:40;98878.88;;;10.88;100.00
59110;BME280;44895;47.438;18.978;2024-02-23T15:47:43;98884.13;;;10.93;100.00
59110;BME280;44895;47.438;18.978;2024-02-23T15:50:47;98874.91;;;10.85;100.00
59110;BME280;44895;47.438;18.978;2024-02-23T15:53:51;98870.91;;;10.83;100.00
59110;BME280;44895;47.438;18.978;2024-02-23T15:56:55;98872.63;;;10.96;100.00